createdAt,value
2023-11-26T00:00:11.815Z,46.10
2023-11-26T00:02:40.099Z,46.00
2023-11-26T00:05:10.143Z,45.10
2023-11-26T00:07:38.756Z,46.20
2023-11-26T00:10:08.122Z,45.00
2023-11-26T00:12:36.470Z,45.70
2023-11-26T00:15:06.492Z,44.30
2023-11-26T00:17:36.439Z,44.30
2023-11-26T00:20:07.583Z,44.70
2023-11-26T00:22:35.640Z,44.90
2023-11-26T00:25:03.810Z,45.00
2023-11-26T00:27:31.842Z,45.20
2023-11-26T00:30:00.194Z,44.90
2023-11-26T00:32:28.222Z,45.30
2023-11-26T00:34:57.584Z,44.40
2023-11-26T00:37:25.617Z,45.50
2023-11-26T00:39:53.609Z,45.70
2023-11-26T00:42:21.594Z,46.00
2023-11-26T00:44:49.635Z,45.30
2023-11-26T00:47:17.765Z,46.20
2023-11-26T00:49:45.802Z,46.20
2023-11-26T00:52:15.170Z,46.00
2023-11-26T00:54:43.222Z,45.50
2023-11-26T00:57:11.252Z,46.40
2023-11-26T00:59:39.247Z,45.60
2023-11-26T01:02:09.141Z,46.30
2023-11-26T01:04:37.413Z,46.30
2023-11-26T01:07:06.866Z,46.70
2023-11-26T01:09:36.267Z,46.00
2023-11-26T01:12:04.916Z,46.20
2023-11-26T01:14:33.005Z,46.10
2023-11-26T01:17:01.094Z,46.70
2023-11-26T01:19:29.112Z,46.50
2023-11-26T01:21:57.358Z,46.10
2023-11-26T01:24:26.277Z,46.90
2023-11-26T01:26:55.656Z,47.20
2023-11-26T01:29:23.659Z,46.90
2023-11-26T01:31:51.688Z,47.00
2023-11-26T01:34:19.714Z,47.00
2023-11-26T01:36:47.682Z,47.20
2023-11-26T01:39:16.151Z,47.30
2023-11-26T01:41:44.145Z,47.30
2023-11-26T01:44:13.975Z,46.80
2023-11-26T01:46:43.175Z,47.20
2023-11-26T01:49:11.300Z,47.30
2023-11-26T01:51:40.455Z,47.60
2023-11-26T01:54:08.852Z,47.00
2023-11-26T01:56:38.048Z,48.40
2023-11-26T01:59:06.231Z,47.40
2023-11-26T02:01:36.791Z,47.70
2023-11-26T02:04:05.308Z,47.70
2023-11-26T02:06:34.381Z,47.90
2023-11-26T02:09:03.345Z,47.10
2023-11-26T02:11:32.287Z,46.60
2023-11-26T02:14:00.733Z,47.70
2023-11-26T02:16:28.846Z,48.00
2023-11-26T02:18:58.210Z,47.80
2023-11-26T02:21:26.196Z,47.20
2023-11-26T02:23:54.498Z,47.50
2023-11-26T02:26:23.871Z,47.20
2023-11-26T02:28:51.873Z,47.50
2023-11-26T02:31:19.919Z,47.60
2023-11-26T02:33:54.856Z,48.20
2023-11-26T02:36:26.396Z,47.60
2023-11-26T02:38:54.512Z,48.20
2023-11-26T02:41:25.449Z,47.90
2023-11-26T02:43:53.921Z,48.10
2023-11-26T02:46:22.261Z,48.20
2023-11-26T02:48:50.346Z,47.60
2023-11-26T02:51:18.484Z,48.50
2023-11-26T02:53:46.529Z,48.50
2023-11-26T02:56:15.293Z,48.60
2023-11-26T02:58:44.719Z,48.40
2023-11-26T03:01:19.134Z,47.90
2023-11-26T03:03:48.577Z,48.70
2023-11-26T03:06:17.992Z,48.70
2023-11-26T03:08:46.162Z,48.50
2023-11-26T03:11:32.246Z,49.10
2023-11-26T03:14:01.930Z,48.70
2023-11-26T03:16:29.976Z,49.10
2023-11-26T03:18:58.127Z,49.10
2023-11-26T03:21:29.963Z,49.60
2023-11-26T03:23:58.797Z,49.20
2023-11-26T03:26:28.244Z,49.40
2023-11-26T03:28:56.956Z,49.30
2023-11-26T03:31:27.139Z,49.40
2023-11-26T03:33:55.581Z,49.00
2023-11-26T03:36:23.705Z,49.20
2023-11-26T03:38:51.941Z,49.50
2023-11-26T03:41:20.293Z,49.00
2023-11-26T03:43:48.265Z,49.60
2023-11-26T03:46:16.568Z,49.50
2023-11-26T03:48:46.624Z,49.40
2023-11-26T03:51:18.739Z,49.20
2023-11-26T03:53:46.966Z,49.50
2023-11-26T03:56:15.542Z,49.70
2023-11-26T03:58:43.657Z,49.90
2023-11-26T04:01:12.755Z,49.60
2023-11-26T04:03:40.958Z,49.40
2023-11-26T04:06:10.506Z,49.60
2023-11-26T04:08:38.472Z,49.40
2023-11-26T04:11:06.942Z,49.80
2023-11-26T04:13:35.071Z,50.30
2023-11-26T04:16:05.876Z,50.40
2023-11-26T04:18:33.904Z,50.40
2023-11-26T04:21:01.909Z,50.40
2023-11-26T04:23:31.298Z,50.20
2023-11-26T04:26:01.379Z,50.50
2023-11-26T04:28:29.381Z,50.90
2023-11-26T04:30:57.556Z,50.50
2023-11-26T04:33:26.089Z,50.20
2023-11-26T04:35:54.106Z,50.40
2023-11-26T04:38:22.562Z,50.70
2023-11-26T04:40:52.654Z,50.70
2023-11-26T04:43:20.722Z,50.80
2023-11-26T04:45:48.877Z,50.70
2023-11-26T04:48:16.974Z,51.30
2023-11-26T04:50:45.984Z,50.90
2023-11-26T04:53:14.018Z,51.10
2023-11-26T04:55:42.243Z,51.20
2023-11-26T04:58:12.292Z,51.30
2023-11-26T05:00:40.277Z,51.30
2023-11-26T05:03:08.598Z,51.10
2023-11-26T05:05:36.806Z,51.00
2023-11-26T05:08:06.146Z,50.90
2023-11-26T05:10:34.503Z,50.70
2023-11-26T05:13:02.469Z,51.40
2023-11-26T05:15:34.628Z,51.00
2023-11-26T05:18:02.659Z,51.00
2023-11-26T05:20:30.724Z,50.80
2023-11-26T05:22:58.783Z,51.70
2023-11-26T05:25:26.826Z,52.00
2023-11-26T05:27:54.873Z,51.40
2023-11-26T05:30:23.168Z,52.00
2023-11-26T05:32:52.575Z,51.20
2023-11-26T05:35:20.750Z,51.30
2023-11-26T05:37:48.892Z,51.80
2023-11-26T05:40:17.086Z,51.20
2023-11-26T05:42:45.231Z,52.20
2023-11-26T05:45:13.585Z,51.60
2023-11-26T05:47:41.982Z,51.70
2023-11-26T05:50:11.691Z,51.80
2023-11-26T05:52:40.008Z,52.00
2023-11-26T05:55:09.974Z,51.90
2023-11-26T05:57:38.016Z,51.90
2023-11-26T06:00:08.193Z,51.80
2023-11-26T06:02:36.239Z,51.90
2023-11-26T06:05:04.373Z,51.80
2023-11-26T06:07:33.694Z,51.90
2023-11-26T06:10:01.792Z,51.00
2023-11-26T06:12:29.830Z,51.70
2023-11-26T06:14:57.809Z,51.50
2023-11-26T06:17:25.825Z,51.70
2023-11-26T06:19:54.112Z,52.70
2023-11-26T06:22:23.005Z,51.70
2023-11-26T06:24:52.401Z,51.80
2023-11-26T06:27:20.434Z,52.00
2023-11-26T06:29:48.646Z,52.10
2023-11-26T06:32:15.892Z,51.60
2023-11-26T06:34:44.248Z,52.10
2023-11-26T06:37:12.237Z,51.90
2023-11-26T06:39:40.235Z,51.90
2023-11-26T06:42:11.105Z,51.20
2023-11-26T06:44:39.107Z,51.40
2023-11-26T06:47:07.311Z,51.80
2023-11-26T06:49:35.481Z,52.10
2023-11-26T06:52:03.500Z,51.70
2023-11-26T06:54:31.499Z,51.80
2023-11-26T06:56:59.641Z,51.70
2023-11-26T06:59:28.929Z,51.70
2023-11-26T07:01:56.987Z,52.10
2023-11-26T07:04:25.192Z,52.00
2023-11-26T07:06:53.501Z,51.70
2023-11-26T07:09:21.507Z,51.70
2023-11-26T07:11:49.490Z,51.70
2023-11-26T07:14:17.479Z,51.90
2023-11-26T07:16:47.256Z,52.10
2023-11-26T07:19:15.216Z,51.90
2023-11-26T07:21:43.632Z,52.00
2023-11-26T07:24:11.770Z,51.90
2023-11-26T07:26:40.053Z,51.70
2023-11-26T07:29:10.279Z,51.70
2023-11-26T07:31:39.956Z,52.20
2023-11-26T07:34:09.520Z,52.10
2023-11-26T07:36:38.123Z,51.70
2023-11-26T07:39:07.234Z,51.60
2023-11-26T07:41:35.785Z,52.40
2023-11-26T07:44:04.024Z,52.20
2023-11-26T07:46:32.056Z,52.60
2023-11-26T07:49:00.058Z,51.70
2023-11-26T07:51:29.470Z,52.80
2023-11-26T07:53:57.470Z,51.80
2023-11-26T07:56:25.446Z,52.30
2023-11-26T07:58:53.417Z,52.20
2023-11-26T08:01:21.400Z,52.50
2023-11-26T08:03:50.853Z,52.40
2023-11-26T08:06:19.197Z,52.50
2023-11-26T08:08:48.518Z,52.00
2023-11-26T08:11:17.249Z,52.30
2023-11-26T08:13:45.886Z,52.40
2023-11-26T08:16:15.431Z,52.60
2023-11-26T08:18:43.641Z,52.70
2023-11-26T08:21:11.874Z,52.50
2023-11-26T08:23:42.901Z,52.40
2023-11-26T08:26:16.421Z,51.60
2023-11-26T08:28:44.808Z,47.80
2023-11-26T08:31:13.266Z,44.30
2023-11-26T08:33:46.085Z,42.70
2023-11-26T08:36:16.895Z,42.40
2023-11-26T08:38:47.805Z,43.80
2023-11-26T08:41:21.681Z,43.10
2023-11-26T08:43:52.452Z,42.50
2023-11-26T08:46:23.868Z,43.70
2023-11-26T08:48:54.265Z,44.70
2023-11-26T08:51:23.046Z,44.20
2023-11-26T08:53:51.269Z,44.30
2023-11-26T08:56:21.977Z,44.40
2023-11-26T08:58:50.006Z,44.70
2023-11-26T09:01:18.088Z,44.80
2023-11-26T09:03:46.108Z,43.60
2023-11-26T09:06:14.791Z,44.80
2023-11-26T09:08:42.773Z,44.00
2023-11-26T09:11:13.133Z,44.60
2023-11-26T09:13:42.445Z,44.40
2023-11-26T09:16:10.706Z,44.30
2023-11-26T09:18:38.807Z,44.50
2023-11-26T09:21:07.162Z,44.60
2023-11-26T09:23:37.162Z,44.20
2023-11-26T09:26:05.572Z,44.70
2023-11-26T09:28:33.588Z,43.30
2023-11-26T09:31:05.197Z,44.60
2023-11-26T09:33:33.530Z,43.00
2023-11-26T09:36:02.139Z,44.80
2023-11-26T09:38:30.115Z,44.30
2023-11-26T09:40:58.500Z,44.10
2023-11-26T09:43:28.847Z,44.20
2023-11-26T09:45:57.558Z,44.20
2023-11-26T09:48:27.340Z,43.10
2023-11-26T09:50:55.895Z,43.50
2023-11-26T09:53:25.266Z,42.90
2023-11-26T09:55:55.089Z,43.40
2023-11-26T09:58:23.713Z,43.80
2023-11-26T10:00:51.755Z,43.80
2023-11-26T10:03:20.087Z,43.70
2023-11-26T10:05:49.509Z,43.30
2023-11-26T10:08:30.050Z,43.90
2023-11-26T10:10:58.317Z,43.60
2023-11-26T10:13:39.768Z,42.90
2023-11-26T10:16:09.743Z,43.80
2023-11-26T10:18:45.368Z,43.80
2023-11-26T10:21:14.804Z,43.70
2023-11-26T10:23:43.897Z,43.20
2023-11-26T10:26:23.880Z,43.00
2023-11-26T10:29:09.460Z,43.80
2023-11-26T10:31:38.177Z,43.90
2023-11-26T10:34:11.506Z,43.50
2023-11-26T10:36:41.181Z,43.70
2023-11-26T10:39:12.706Z,43.60
2023-11-26T10:41:41.485Z,43.30
2023-11-26T10:44:12.289Z,43.50
2023-11-26T10:46:43.734Z,43.70
2023-11-26T10:49:27.072Z,43.30
2023-11-26T10:52:09.125Z,43.10
2023-11-26T10:54:50.503Z,43.00
2023-11-26T10:57:27.370Z,42.90
2023-11-26T11:00:00.441Z,43.10
2023-11-26T11:02:28.953Z,43.10
2023-11-26T11:04:57.462Z,43.10
2023-11-26T11:07:28.003Z,43.00
2023-11-26T11:10:09.511Z,43.00
2023-11-26T11:12:55.346Z,42.90
2023-11-26T11:15:26.251Z,42.60
2023-11-26T11:17:54.558Z,43.20
2023-11-26T11:20:44.526Z,43.30
2023-11-26T11:23:33.045Z,42.90
2023-11-26T11:26:01.236Z,43.20
2023-11-26T11:28:38.788Z,42.80
2023-11-26T11:31:11.877Z,43.10
2023-11-26T11:34:21.043Z,42.50
2023-11-26T11:36:54.383Z,42.80
2023-11-26T11:39:27.174Z,42.90
2023-11-26T11:42:12.523Z,42.90
2023-11-26T11:44:43.455Z,42.70
2023-11-26T11:47:13.827Z,42.80
2023-11-26T11:50:08.837Z,43.10
2023-11-26T11:52:38.686Z,42.80
2023-11-26T11:55:41.787Z,42.80
2023-11-26T11:58:15.225Z,43.00
2023-11-26T12:00:47.213Z,43.20
2023-11-26T12:03:18.617Z,43.20
2023-11-26T12:05:46.733Z,43.50
2023-11-26T12:08:15.703Z,43.20
2023-11-26T12:10:45.540Z,43.50
2023-11-26T12:13:13.964Z,43.50
2023-11-26T12:15:56.025Z,44.00
2023-11-26T12:18:24.281Z,44.10
2023-11-26T12:20:52.470Z,44.30
2023-11-26T12:23:35.273Z,44.00
2023-11-26T12:26:06.673Z,44.50
2023-11-26T12:28:44.849Z,44.60
2023-11-26T12:31:13.945Z,44.10
2023-11-26T12:33:44.580Z,44.70
2023-11-26T12:36:13.594Z,44.80
2023-11-26T12:38:43.498Z,44.90
2023-11-26T12:41:14.129Z,44.90
2023-11-26T12:43:42.521Z,45.00
2023-11-26T12:46:28.099Z,45.00
2023-11-26T12:48:56.525Z,43.80
2023-11-26T12:51:26.730Z,43.00
2023-11-26T12:53:59.498Z,45.00
2023-11-26T12:56:30.567Z,44.50
2023-11-26T12:59:00.557Z,43.70
2023-11-26T13:01:31.628Z,44.30
2023-11-26T13:04:00.501Z,44.80
2023-11-26T13:06:30.851Z,44.70
2023-11-26T13:09:05.407Z,44.80
2023-11-26T13:11:37.816Z,44.90
2023-11-26T13:14:07.861Z,44.70
2023-11-26T13:16:37.008Z,45.00
2023-11-26T13:19:05.267Z,44.50
2023-11-26T13:21:35.146Z,43.40
2023-11-26T13:24:03.452Z,45.10
2023-11-26T13:26:32.317Z,43.50
2023-11-26T13:29:03.679Z,43.60
2023-11-26T13:31:31.718Z,44.50
2023-11-26T13:33:59.797Z,43.80
2023-11-26T13:36:27.995Z,44.80
2023-11-26T13:39:01.249Z,43.60
2023-11-26T13:41:29.443Z,43.30
2023-11-26T13:43:57.439Z,43.60
2023-11-26T13:46:27.178Z,44.80
2023-11-26T13:48:55.251Z,45.00
2023-11-26T13:51:23.328Z,45.10
2023-11-26T13:53:51.344Z,44.40
2023-11-26T13:56:19.309Z,44.00
2023-11-26T13:58:47.281Z,45.10
2023-11-26T14:01:15.705Z,44.70
2023-11-26T14:03:45.100Z,44.10
2023-11-26T14:06:13.732Z,44.00
2023-11-26T14:08:41.796Z,44.30
2023-11-26T14:11:10.323Z,44.20
2023-11-26T14:13:38.906Z,44.90
2023-11-26T14:16:07.878Z,44.40
2023-11-26T14:18:35.942Z,44.60
2023-11-26T14:21:05.640Z,44.70
2023-11-26T14:23:33.623Z,45.10
2023-11-26T14:26:01.852Z,45.10
2023-11-26T14:28:29.822Z,44.80
2023-11-26T14:30:58.008Z,44.80
2023-11-26T14:33:26.100Z,45.10
2023-11-26T14:35:55.261Z,44.10
2023-11-26T14:38:24.573Z,44.50
2023-11-26T14:40:53.337Z,46.10
2023-11-26T14:43:22.868Z,44.40
2023-11-26T14:45:51.143Z,45.20
2023-11-26T14:48:21.103Z,44.90
2023-11-26T14:50:49.932Z,45.30
2023-11-26T14:53:17.940Z,44.90
2023-11-26T14:55:47.308Z,45.10
2023-11-26T14:58:15.304Z,45.50
2023-11-26T15:00:43.397Z,44.80
2023-11-26T15:03:12.607Z,45.40
2023-11-26T15:05:41.593Z,45.20
2023-11-26T15:08:09.525Z,45.40
2023-11-26T15:10:54.474Z,44.70
2023-11-26T15:13:22.498Z,45.20
2023-11-26T15:15:50.594Z,45.20
2023-11-26T15:18:19.450Z,45.20
2023-11-26T15:20:47.959Z,45.00
2023-11-26T15:23:16.004Z,44.00
2023-11-26T15:25:44.107Z,45.10
2023-11-26T15:28:13.633Z,45.20
2023-11-26T15:30:41.985Z,44.20
2023-11-26T15:33:11.210Z,44.90
2023-11-26T15:35:39.442Z,45.40
2023-11-26T15:38:10.693Z,44.00
2023-11-26T15:40:41.594Z,45.00
2023-11-26T15:43:09.735Z,45.20
2023-11-26T15:45:40.476Z,45.80
2023-11-26T15:48:09.460Z,45.10
2023-11-26T15:50:37.602Z,45.40
2023-11-26T15:53:05.599Z,45.20
2023-11-26T15:55:35.126Z,45.10
2023-11-26T15:58:03.280Z,46.30
2023-11-26T16:00:31.356Z,44.70
2023-11-26T16:03:00.819Z,45.40
2023-11-26T16:05:29.862Z,45.20
2023-11-26T16:07:58.053Z,45.30
2023-11-26T16:10:26.085Z,45.00
2023-11-26T16:12:54.129Z,45.30
2023-11-26T16:15:22.131Z,45.20
2023-11-26T16:17:50.163Z,45.00
2023-11-26T16:20:19.544Z,45.20
2023-11-26T16:22:47.554Z,45.40
2023-11-26T16:25:20.360Z,45.30
2023-11-26T16:27:49.724Z,45.20
2023-11-26T16:30:18.596Z,45.40
2023-11-26T16:32:46.632Z,45.20
2023-11-26T16:35:16.520Z,45.20
2023-11-26T16:37:45.942Z,44.60
2023-11-26T16:40:15.989Z,45.40
2023-11-26T16:42:44.107Z,45.00
2023-11-26T16:45:12.328Z,44.20
2023-11-26T16:47:40.429Z,45.40
2023-11-26T16:50:09.075Z,44.80
2023-11-26T16:52:37.070Z,44.20
2023-11-26T16:55:09.493Z,45.10
2023-11-26T16:57:37.780Z,45.20
2023-11-26T17:00:07.188Z,45.00
2023-11-26T17:02:35.312Z,44.90
2023-11-26T17:05:05.052Z,43.70
2023-11-26T17:07:33.131Z,44.90
2023-11-26T17:10:01.186Z,44.80
2023-11-26T17:12:37.355Z,44.20
2023-11-26T17:15:06.835Z,44.50
2023-11-26T17:17:34.912Z,45.10
2023-11-26T17:20:03.333Z,45.40
2023-11-26T17:22:31.329Z,44.60
2023-11-26T17:24:59.352Z,45.20
2023-11-26T17:27:27.431Z,44.30
2023-11-26T17:29:57.519Z,44.70
2023-11-26T17:32:25.529Z,43.80
2023-11-26T17:34:54.988Z,44.60
2023-11-26T17:37:23.909Z,45.20
2023-11-26T17:39:52.022Z,45.50
2023-11-26T17:42:20.090Z,45.40
2023-11-26T17:44:48.104Z,44.70
2023-11-26T17:47:18.314Z,44.80
2023-11-26T17:49:46.918Z,45.40
2023-11-26T17:52:15.301Z,44.90
2023-11-26T17:54:43.429Z,45.60
2023-11-26T17:57:13.475Z,45.60
2023-11-26T17:59:41.797Z,45.30
2023-11-26T18:02:10.136Z,45.50
2023-11-26T18:04:42.374Z,45.30
2023-11-26T18:07:12.409Z,45.20
2023-11-26T18:09:40.752Z,45.60
2023-11-26T18:12:08.921Z,45.20
2023-11-26T18:14:37.013Z,45.80
2023-11-26T18:17:05.392Z,45.30
2023-11-26T18:19:33.711Z,45.50
2023-11-26T18:22:03.427Z,45.70
2023-11-26T18:24:32.740Z,45.40
2023-11-26T18:27:01.499Z,45.40
2023-11-26T18:29:29.527Z,45.70
2023-11-26T18:31:57.927Z,45.60
2023-11-26T18:34:26.934Z,45.20
2023-11-26T18:36:54.978Z,46.20
2023-11-26T18:39:24.306Z,45.20
2023-11-26T18:41:52.265Z,45.80
2023-11-26T18:44:20.221Z,46.00
2023-11-26T18:46:48.253Z,45.00
2023-11-26T18:49:16.276Z,46.10
2023-11-26T18:51:47.920Z,45.60
2023-11-26T18:54:16.300Z,46.20
2023-11-26T18:56:45.693Z,46.00
2023-11-26T18:59:18.579Z,46.00
2023-11-26T19:01:46.607Z,45.30
2023-11-26T19:04:15.031Z,45.70
2023-11-26T19:06:43.221Z,46.10
2023-11-26T19:09:11.366Z,46.10
2023-11-26T19:11:40.131Z,45.70
2023-11-26T19:14:09.574Z,46.20
2023-11-26T19:16:38.504Z,46.00
2023-11-26T19:19:06.574Z,46.30
2023-11-26T19:21:35.415Z,45.80
2023-11-26T19:24:03.488Z,46.10
2023-11-26T19:26:31.497Z,46.20
2023-11-26T19:29:00.377Z,46.00
2023-11-26T19:31:29.960Z,46.70
2023-11-26T19:33:58.140Z,46.10
2023-11-26T19:36:27.184Z,46.70
2023-11-26T19:38:55.329Z,46.10
2023-11-26T19:41:23.415Z,46.70
2023-11-26T19:43:52.115Z,46.60
2023-11-26T19:46:20.331Z,46.60
2023-11-26T19:48:50.586Z,46.10
2023-11-26T19:51:22.427Z,47.10
2023-11-26T19:53:50.919Z,48.20
2023-11-26T19:56:19.619Z,48.60
2023-11-26T19:58:48.244Z,47.80
2023-11-26T20:01:17.534Z,47.60
2023-11-26T20:03:46.424Z,47.20
2023-11-26T20:06:16.064Z,47.30
2023-11-26T20:08:44.619Z,47.70
2023-11-26T20:11:12.688Z,48.00
2023-11-26T20:13:40.665Z,47.80
2023-11-26T20:16:09.910Z,47.30
2023-11-26T20:18:37.923Z,48.10
2023-11-26T20:21:09.003Z,47.20
2023-11-26T20:23:38.308Z,47.90
2023-11-26T20:26:06.832Z,47.70
2023-11-26T20:28:36.597Z,47.80
2023-11-26T20:31:08.706Z,47.80
2023-11-26T20:33:39.090Z,47.80
2023-11-26T20:36:08.794Z,48.20
2023-11-26T20:38:38.275Z,47.80
2023-11-26T20:41:06.351Z,47.90
2023-11-26T20:43:34.574Z,47.10
2023-11-26T20:46:02.643Z,47.20
2023-11-26T20:48:31.956Z,47.40
2023-11-26T20:51:00.056Z,47.50
2023-11-26T20:53:28.108Z,47.70
2023-11-26T20:55:57.490Z,47.40
2023-11-26T20:58:28.563Z,47.20
2023-11-26T21:00:56.906Z,47.00
2023-11-26T21:03:24.948Z,47.70
2023-11-26T21:05:53.011Z,47.40
2023-11-26T21:08:21.596Z,47.30
2023-11-26T21:10:49.670Z,47.70
2023-11-26T21:13:19.083Z,47.50
2023-11-26T21:15:47.341Z,47.60
2023-11-26T21:18:16.713Z,47.60
2023-11-26T21:20:44.838Z,47.50
2023-11-26T21:23:12.902Z,46.70
2023-11-26T21:25:42.129Z,47.70
2023-11-26T21:28:10.148Z,47.70
2023-11-26T21:30:39.812Z,47.10
2023-11-26T21:33:07.846Z,47.70
2023-11-26T21:35:35.863Z,47.50
2023-11-26T21:38:04.056Z,47.10
2023-11-26T21:40:32.116Z,47.80
2023-11-26T21:43:00.315Z,47.90
2023-11-26T21:45:28.799Z,47.80
2023-11-26T21:47:58.147Z,47.60
2023-11-26T21:50:30.858Z,47.60
2023-11-26T21:52:58.858Z,47.70
2023-11-26T21:55:26.833Z,47.20
2023-11-26T21:57:54.850Z,47.00
2023-11-26T22:00:22.837Z,47.40
2023-11-26T22:02:50.856Z,46.70
2023-11-26T22:05:20.249Z,46.50
2023-11-26T22:07:48.227Z,47.00
2023-11-26T22:10:16.475Z,46.90
2023-11-26T22:12:44.503Z,46.50
2023-11-26T22:15:12.759Z,46.50
2023-11-26T22:17:40.850Z,47.10
2023-11-26T22:20:11.023Z,47.10
2023-11-26T22:22:43.487Z,47.40
2023-11-26T22:25:12.912Z,46.70
2023-11-26T22:27:40.951Z,47.20
2023-11-26T22:30:12.560Z,47.10
2023-11-26T22:32:40.942Z,46.70
2023-11-26T22:35:10.733Z,46.60
2023-11-26T22:37:40.557Z,46.80
2023-11-26T22:40:10.543Z,46.90
2023-11-26T22:42:38.682Z,47.90
2023-11-26T22:45:08.230Z,45.90
2023-11-26T22:47:36.264Z,47.20
2023-11-26T22:50:04.669Z,47.40
2023-11-26T22:52:33.124Z,46.80
2023-11-26T22:55:02.491Z,47.90
2023-11-26T22:57:30.521Z,47.20
2023-11-26T22:59:58.683Z,47.60
2023-11-26T23:02:26.863Z,47.70
2023-11-26T23:04:54.981Z,47.70
2023-11-26T23:07:23.648Z,47.40
2023-11-26T23:09:51.623Z,46.90
2023-11-26T23:12:20.939Z,46.80
2023-11-26T23:14:48.935Z,47.60
2023-11-26T23:17:16.972Z,47.20
2023-11-26T23:19:44.951Z,47.40
2023-11-26T23:22:13.391Z,47.70
2023-11-26T23:24:41.468Z,47.40
2023-11-26T23:27:09.797Z,48.60
2023-11-26T23:29:39.590Z,47.90
2023-11-26T23:32:08.423Z,47.90
2023-11-26T23:34:36.776Z,48.00
2023-11-26T23:37:05.398Z,48.40
2023-11-26T23:39:33.368Z,48.40
2023-11-26T23:42:01.354Z,48.20
2023-11-26T23:44:29.443Z,47.70
2023-11-26T23:46:58.980Z,48.30
2023-11-26T23:49:27.113Z,48.60
2023-11-26T23:51:55.149Z,48.80
2023-11-26T23:54:23.178Z,48.50
2023-11-26T23:56:51.172Z,48.60
2023-11-26T23:59:19.182Z,48.40
